sensor_id;sensor_type;location;lat;lon;timestamp;P1;durP1;ratioP1;P2;durP2;ratioP2
61640;SDS011;62201;49.966;8.342;2022-12-05T00:01:58;40.13;;;22.13;;
61640;SDS011;62201;49.966;8.342;2022-12-05T00:04:23;42.80;;;22.30;;
61640;SDS011;62201;49.966;8.342;2022-12-05T00:06:48;45.27;;;23.23;;
61640;SDS011;62201;49.966;8.342;2022-12-05T00:09:14;47.43;;;22.67;;
61640;SDS011;62201;49.966;8.342;2022-12-05T00:11:40;45.57;;;24.10;;
61640;SDS011;62201;49.966;8.342;2022-12-05T00:14:07;45.77;;;23.27;;
61640;SDS011;62201;49.966;8.342;2022-12-05T00:16:34;53.80;;;25.20;;
61640;SDS011;62201;49.966;8.342;2022-12-05T00:19:02;45.77;;;24.03;;
61640;SDS011;62201;49.966;8.342;2022-12-05T00:21:30;51.47;;;24.83;;
61640;SDS011;62201;49.966;8.342;2022-12-05T00:23:58;41.67;;;22.50;;
61640;SDS011;62201;49.966;8.342;2022-12-05T00:26:25;45.27;;;23.03;;
61640;SDS011;62201;49.966;8.342;2022-12-05T00:28:51;43.07;;;22.03;;
61640;SDS011;62201;49.966;8.342;2022-12-05T00:31:18;60.23;;;26.20;;
61640;SDS011;62201;49.966;8.342;2022-12-05T00:33:45;58.73;;;26.40;;
61640;SDS011;62201;49.966;8.342;2022-12-05T00:36:16;42.67;;;22.57;;
61640;SDS011;62201;49.966;8.342;2022-12-05T00:38:44;40.63;;;20.25;;
61640;SDS011;62201;49.966;8.342;2022-12-05T00:41:13;34.60;;;19.40;;
61640;SDS011;62201;49.966;8.342;2022-12-05T00:43:40;38.60;;;21.27;;
61640;SDS011;62201;49.966;8.342;2022-12-05T00:46:07;39.00;;;20.93;;
61640;SDS011;62201;49.966;8.342;2022-12-05T00:48:34;42.00;;;21.30;;
61640;SDS011;62201;49.966;8.342;2022-12-05T00:51:03;39.83;;;21.00;;
61640;SDS011;62201;49.966;8.342;2022-12-05T00:53:31;39.97;;;19.93;;
61640;SDS011;62201;49.966;8.342;2022-12-05T00:56:00;34.77;;;19.87;;
61640;SDS011;62201;49.966;8.342;2022-12-05T00:58:27;37.17;;;21.03;;
61640;SDS011;62201;49.966;8.342;2022-12-05T01:00:53;38.57;;;20.73;;
61640;SDS011;62201;49.966;8.342;2022-12-05T01:03:18;40.37;;;21.83;;
61640;SDS011;62201;49.966;8.342;2022-12-05T01:05:43;37.90;;;20.93;;
61640;SDS011;62201;49.966;8.342;2022-12-05T01:08:09;51.07;;;24.27;;
61640;SDS011;62201;49.966;8.342;2022-12-05T01:10:34;36.27;;;19.83;;
61640;SDS011;62201;49.966;8.342;2022-12-05T01:12:59;49.03;;;23.17;;
61640;SDS011;62201;49.966;8.342;2022-12-05T01:15:25;36.87;;;21.07;;
61640;SDS011;62201;49.966;8.342;2022-12-05T01:17:50;58.97;;;26.40;;
61640;SDS011;62201;49.966;8.342;2022-12-05T01:20:16;55.10;;;24.93;;
61640;SDS011;62201;49.966;8.342;2022-12-05T01:22:41;35.43;;;20.63;;
61640;SDS011;62201;49.966;8.342;2022-12-05T01:25:07;34.33;;;20.13;;
61640;SDS011;62201;49.966;8.342;2022-12-05T01:27:32;31.27;;;18.60;;
61640;SDS011;62201;49.966;8.342;2022-12-05T01:29:58;34.27;;;19.00;;
61640;SDS011;62201;49.966;8.342;2022-12-05T01:32:23;35.47;;;19.60;;
61640;SDS011;62201;49.966;8.342;2022-12-05T01:34:49;32.27;;;18.20;;
61640;SDS011;62201;49.966;8.342;2022-12-05T01:37:14;32.80;;;19.37;;
61640;SDS011;62201;49.966;8.342;2022-12-05T01:39:40;30.93;;;17.23;;
61640;SDS011;62201;49.966;8.342;2022-12-05T01:42:05;30.53;;;17.63;;
61640;SDS011;62201;49.966;8.342;2022-12-05T01:46:56;30.07;;;17.20;;
61640;SDS011;62201;49.966;8.342;2022-12-05T01:49:35;30.73;;;16.90;;
61640;SDS011;62201;49.966;8.342;2022-12-05T01:52:04;28.27;;;17.20;;
61640;SDS011;62201;49.966;8.342;2022-12-05T01:54:35;33.15;;;18.20;;
61640;SDS011;62201;49.966;8.342;2022-12-05T01:57:04;33.83;;;18.10;;
61640;SDS011;62201;49.966;8.342;2022-12-05T01:59:33;33.20;;;17.53;;
61640;SDS011;62201;49.966;8.342;2022-12-05T02:02:02;35.33;;;19.60;;
61640;SDS011;62201;49.966;8.342;2022-12-05T02:04:28;31.77;;;18.33;;
61640;SDS011;62201;49.966;8.342;2022-12-05T02:06:54;30.30;;;18.77;;
61640;SDS011;62201;49.966;8.342;2022-12-05T02:09:19;32.83;;;18.03;;
61640;SDS011;62201;49.966;8.342;2022-12-05T02:11:49;37.93;;;18.57;;
61640;SDS011;62201;49.966;8.342;2022-12-05T02:20:27;33.87;;;18.50;;
61640;SDS011;62201;49.966;8.342;2022-12-05T02:31:37;39.23;;;18.40;;
61640;SDS011;62201;49.966;8.342;2022-12-05T02:34:25;34.83;;;18.37;;
61640;SDS011;62201;49.966;8.342;2022-12-05T02:36:56;34.87;;;18.13;;
61640;SDS011;62201;49.966;8.342;2022-12-05T02:42:29;33.33;;;18.30;;
61640;SDS011;62201;49.966;8.342;2022-12-05T02:45:07;40.55;;;19.00;;
61640;SDS011;62201;49.966;8.342;2022-12-05T02:47:35;32.10;;;18.20;;
61640;SDS011;62201;49.966;8.342;2022-12-05T02:50:05;33.57;;;18.17;;
61640;SDS011;62201;49.966;8.342;2022-12-05T02:52:32;35.70;;;19.20;;
61640;SDS011;62201;49.966;8.342;2022-12-05T02:54:59;34.57;;;18.83;;
61640;SDS011;62201;49.966;8.342;2022-12-05T02:57:25;37.47;;;19.03;;
61640;SDS011;62201;49.966;8.342;2022-12-05T02:59:50;40.33;;;20.20;;
61640;SDS011;62201;49.966;8.342;2022-12-05T03:02:23;43.70;;;22.07;;
61640;SDS011;62201;49.966;8.342;2022-12-05T03:04:51;37.37;;;19.80;;
61640;SDS011;62201;49.966;8.342;2022-12-05T03:07:17;43.50;;;21.73;;
61640;SDS011;62201;49.966;8.342;2022-12-05T03:09:46;42.63;;;22.00;;
61640;SDS011;62201;49.966;8.342;2022-12-05T03:12:24;45.73;;;22.77;;
61640;SDS011;62201;49.966;8.342;2022-12-05T03:14:57;55.03;;;24.47;;
61640;SDS011;62201;49.966;8.342;2022-12-05T03:17:52;60.40;;;25.77;;
61640;SDS011;62201;49.966;8.342;2022-12-05T03:20:24;63.20;;;25.20;;
61640;SDS011;62201;49.966;8.342;2022-12-05T03:22:55;59.77;;;25.73;;
61640;SDS011;62201;49.966;8.342;2022-12-05T03:28:30;57.70;;;25.10;;
61640;SDS011;62201;49.966;8.342;2022-12-05T03:31:05;53.60;;;23.10;;
61640;SDS011;62201;49.966;8.342;2022-12-05T03:33:36;45.67;;;22.07;;
61640;SDS011;62201;49.966;8.342;2022-12-05T03:36:18;56.53;;;24.83;;
61640;SDS011;62201;49.966;8.342;2022-12-05T03:41:28;49.30;;;22.40;;
61640;SDS011;62201;49.966;8.342;2022-12-05T03:43:57;44.15;;;22.45;;
61640;SDS011;62201;49.966;8.342;2022-12-05T03:52:05;44.90;;;20.30;;
61640;SDS011;62201;49.966;8.342;2022-12-05T03:54:40;43.10;;;21.47;;
61640;SDS011;62201;49.966;8.342;2022-12-05T03:57:21;43.77;;;20.93;;
61640;SDS011;62201;49.966;8.342;2022-12-05T03:59:51;46.57;;;20.37;;
61640;SDS011;62201;49.966;8.342;2022-12-05T04:02:42;53.47;;;21.75;;
61640;SDS011;62201;49.966;8.342;2022-12-05T04:08:09;59.10;;;23.20;;
61640;SDS011;62201;49.966;8.342;2022-12-05T04:10:41;48.70;;;21.03;;
61640;SDS011;62201;49.966;8.342;2022-12-05T04:13:22;49.30;;;21.83;;
61640;SDS011;62201;49.966;8.342;2022-12-05T04:15:55;56.93;;;21.97;;
61640;SDS011;62201;49.966;8.342;2022-12-05T04:18:45;53.87;;;21.90;;
61640;SDS011;62201;49.966;8.342;2022-12-05T04:21:14;55.13;;;21.98;;
61640;SDS011;62201;49.966;8.342;2022-12-05T04:24:01;52.40;;;22.43;;
61640;SDS011;62201;49.966;8.342;2022-12-05T04:26:45;51.83;;;21.47;;
61640;SDS011;62201;49.966;8.342;2022-12-05T04:29:20;45.13;;;20.83;;
61640;SDS011;62201;49.966;8.342;2022-12-05T04:31:54;43.27;;;19.83;;
61640;SDS011;62201;49.966;8.342;2022-12-05T04:34:25;44.27;;;19.80;;
61640;SDS011;62201;49.966;8.342;2022-12-05T04:36:54;48.93;;;21.57;;
61640;SDS011;62201;49.966;8.342;2022-12-05T04:41:59;44.30;;;19.67;;
61640;SDS011;62201;49.966;8.342;2022-12-05T04:44:29;47.87;;;21.73;;
61640;SDS011;62201;49.966;8.342;2022-12-05T04:47:01;44.63;;;21.20;;
61640;SDS011;62201;49.966;8.342;2022-12-05T04:49:30;52.40;;;22.80;;
61640;SDS011;62201;49.966;8.342;2022-12-05T04:51:58;52.53;;;24.13;;
61640;SDS011;62201;49.966;8.342;2022-12-05T04:54:32;58.33;;;24.67;;
61640;SDS011;62201;49.966;8.342;2022-12-05T04:57:14;53.13;;;23.13;;
61640;SDS011;62201;49.966;8.342;2022-12-05T04:59:43;57.90;;;24.43;;
61640;SDS011;62201;49.966;8.342;2022-12-05T05:02:09;53.50;;;22.97;;
61640;SDS011;62201;49.966;8.342;2022-12-05T05:04:43;58.23;;;24.13;;
61640;SDS011;62201;49.966;8.342;2022-12-05T05:07:11;60.47;;;23.90;;
61640;SDS011;62201;49.966;8.342;2022-12-05T05:09:38;55.23;;;23.53;;
61640;SDS011;62201;49.966;8.342;2022-12-05T05:12:04;60.90;;;23.93;;
61640;SDS011;62201;49.966;8.342;2022-12-05T05:14:30;67.80;;;27.60;;
61640;SDS011;62201;49.966;8.342;2022-12-05T05:16:55;57.23;;;24.47;;
61640;SDS011;62201;49.966;8.342;2022-12-05T05:19:22;60.03;;;23.93;;
61640;SDS011;62201;49.966;8.342;2022-12-05T05:21:47;54.30;;;24.07;;
61640;SDS011;62201;49.966;8.342;2022-12-05T05:24:13;56.37;;;23.47;;
61640;SDS011;62201;49.966;8.342;2022-12-05T05:26:40;55.57;;;22.97;;
61640;SDS011;62201;49.966;8.342;2022-12-05T05:29:07;61.60;;;24.97;;
61640;SDS011;62201;49.966;8.342;2022-12-05T05:31:33;57.17;;;25.07;;
61640;SDS011;62201;49.966;8.342;2022-12-05T05:34:00;51.17;;;23.83;;
61640;SDS011;62201;49.966;8.342;2022-12-05T05:36:26;48.80;;;23.07;;
61640;SDS011;62201;49.966;8.342;2022-12-05T05:38:53;48.57;;;22.33;;
61640;SDS011;62201;49.966;8.342;2022-12-05T05:41:23;48.33;;;22.37;;
61640;SDS011;62201;49.966;8.342;2022-12-05T05:43:50;43.20;;;22.30;;
61640;SDS011;62201;49.966;8.342;2022-12-05T05:46:17;48.67;;;22.47;;
61640;SDS011;62201;49.966;8.342;2022-12-05T05:48:44;45.77;;;21.37;;
61640;SDS011;62201;49.966;8.342;2022-12-05T05:51:10;47.00;;;22.50;;
61640;SDS011;62201;49.966;8.342;2022-12-05T05:53:36;47.70;;;23.17;;
61640;SDS011;62201;49.966;8.342;2022-12-05T05:56:06;47.33;;;21.67;;
61640;SDS011;62201;49.966;8.342;2022-12-05T05:58:33;47.30;;;21.60;;
61640;SDS011;62201;49.966;8.342;2022-12-05T06:03:54;46.20;;;21.67;;
61640;SDS011;62201;49.966;8.342;2022-12-05T06:06:19;44.60;;;21.37;;
61640;SDS011;62201;49.966;8.342;2022-12-05T06:08:46;49.63;;;23.17;;
61640;SDS011;62201;49.966;8.342;2022-12-05T06:11:19;46.63;;;22.57;;
61640;SDS011;62201;49.966;8.342;2022-12-05T06:13:45;46.30;;;22.83;;
61640;SDS011;62201;49.966;8.342;2022-12-05T06:16:12;46.47;;;23.77;;
61640;SDS011;62201;49.966;8.342;2022-12-05T06:18:38;46.73;;;22.30;;
61640;SDS011;62201;49.966;8.342;2022-12-05T06:21:03;47.77;;;23.00;;
61640;SDS011;62201;49.966;8.342;2022-12-05T06:23:33;46.90;;;22.90;;
61640;SDS011;62201;49.966;8.342;2022-12-05T06:25:59;48.77;;;22.47;;
61640;SDS011;62201;49.966;8.342;2022-12-05T06:28:24;52.60;;;24.00;;
61640;SDS011;62201;49.966;8.342;2022-12-05T06:30:50;52.17;;;23.27;;
61640;SDS011;62201;49.966;8.342;2022-12-05T06:33:16;49.77;;;22.73;;
61640;SDS011;62201;49.966;8.342;2022-12-05T06:35:42;49.37;;;23.27;;
61640;SDS011;62201;49.966;8.342;2022-12-05T06:38:09;43.90;;;21.73;;
61640;SDS011;62201;49.966;8.342;2022-12-05T06:40:38;50.93;;;22.00;;
61640;SDS011;62201;49.966;8.342;2022-12-05T06:43:07;47.15;;;22.70;;
61640;SDS011;62201;49.966;8.342;2022-12-05T06:45:32;45.77;;;21.80;;
61640;SDS011;62201;49.966;8.342;2022-12-05T06:47:58;43.47;;;21.60;;
61640;SDS011;62201;49.966;8.342;2022-12-05T06:50:23;46.90;;;22.50;;
61640;SDS011;62201;49.966;8.342;2022-12-05T06:52:49;47.10;;;20.80;;
61640;SDS011;62201;49.966;8.342;2022-12-05T06:55:15;44.40;;;21.17;;
61640;SDS011;62201;49.966;8.342;2022-12-05T06:57:40;46.83;;;21.10;;
61640;SDS011;62201;49.966;8.342;2022-12-05T07:00:06;50.53;;;22.07;;
61640;SDS011;62201;49.966;8.342;2022-12-05T07:02:50;52.63;;;22.67;;
61640;SDS011;62201;49.966;8.342;2022-12-05T07:05:17;49.23;;;22.60;;
61640;SDS011;62201;49.966;8.342;2022-12-05T07:07:43;50.77;;;22.50;;
61640;SDS011;62201;49.966;8.342;2022-12-05T07:10:08;49.70;;;23.07;;
61640;SDS011;62201;49.966;8.342;2022-12-05T07:12:33;49.57;;;23.53;;
61640;SDS011;62201;49.966;8.342;2022-12-05T07:14:59;58.80;;;24.70;;
61640;SDS011;62201;49.966;8.342;2022-12-05T07:17:25;52.90;;;22.73;;
61640;SDS011;62201;49.966;8.342;2022-12-05T07:19:51;42.80;;;21.93;;
61640;SDS011;62201;49.966;8.342;2022-12-05T07:22:17;51.47;;;22.20;;
61640;SDS011;62201;49.966;8.342;2022-12-05T07:24:44;56.07;;;24.27;;
61640;SDS011;62201;49.966;8.342;2022-12-05T07:27:10;51.37;;;23.43;;
61640;SDS011;62201;49.966;8.342;2022-12-05T07:29:37;50.30;;;23.23;;
61640;SDS011;62201;49.966;8.342;2022-12-05T07:32:02;53.93;;;22.97;;
61640;SDS011;62201;49.966;8.342;2022-12-05T07:34:28;49.87;;;22.23;;
61640;SDS011;62201;49.966;8.342;2022-12-05T07:36:53;50.20;;;23.20;;
61640;SDS011;62201;49.966;8.342;2022-12-05T07:39:19;52.27;;;22.83;;
61640;SDS011;62201;49.966;8.342;2022-12-05T07:41:44;46.83;;;22.87;;
61640;SDS011;62201;49.966;8.342;2022-12-05T07:44:10;44.87;;;21.93;;
61640;SDS011;62201;49.966;8.342;2022-12-05T07:46:36;50.53;;;22.50;;
61640;SDS011;62201;49.966;8.342;2022-12-05T07:49:02;48.07;;;22.27;;
61640;SDS011;62201;49.966;8.342;2022-12-05T07:51:28;51.40;;;23.57;;
61640;SDS011;62201;49.966;8.342;2022-12-05T07:53:53;47.00;;;22.77;;
61640;SDS011;62201;49.966;8.342;2022-12-05T07:56:19;47.03;;;22.67;;
61640;SDS011;62201;49.966;8.342;2022-12-05T07:58:46;46.63;;;22.53;;
61640;SDS011;62201;49.966;8.342;2022-12-05T08:01:14;49.00;;;23.07;;
61640;SDS011;62201;49.966;8.342;2022-12-05T08:03:41;50.00;;;23.23;;
61640;SDS011;62201;49.966;8.342;2022-12-05T08:06:08;49.13;;;22.77;;
61640;SDS011;62201;49.966;8.342;2022-12-05T08:08:36;47.77;;;22.57;;
61640;SDS011;62201;49.966;8.342;2022-12-05T08:11:02;50.67;;;22.70;;
61640;SDS011;62201;49.966;8.342;2022-12-05T08:13:41;45.87;;;21.60;;
61640;SDS011;62201;49.966;8.342;2022-12-05T08:16:08;52.40;;;23.13;;
61640;SDS011;62201;49.966;8.342;2022-12-05T08:18:35;48.57;;;22.50;;
61640;SDS011;62201;49.966;8.342;2022-12-05T08:21:05;49.43;;;23.93;;
61640;SDS011;62201;49.966;8.342;2022-12-05T08:23:32;55.57;;;24.43;;
61640;SDS011;62201;49.966;8.342;2022-12-05T08:26:01;52.03;;;23.77;;
61640;SDS011;62201;49.966;8.342;2022-12-05T08:28:32;54.83;;;25.07;;
61640;SDS011;62201;49.966;8.342;2022-12-05T08:31:07;56.17;;;25.67;;
61640;SDS011;62201;49.966;8.342;2022-12-05T08:33:35;59.83;;;25.00;;
61640;SDS011;62201;49.966;8.342;2022-12-05T08:36:05;55.17;;;25.57;;
61640;SDS011;62201;49.966;8.342;2022-12-05T08:38:32;58.93;;;24.83;;
61640;SDS011;62201;49.966;8.342;2022-12-05T08:41:01;57.07;;;24.90;;
61640;SDS011;62201;49.966;8.342;2022-12-05T08:43:29;59.77;;;25.93;;
61640;SDS011;62201;49.966;8.342;2022-12-05T08:45:55;52.73;;;24.90;;
61640;SDS011;62201;49.966;8.342;2022-12-05T08:48:20;59.57;;;25.37;;
61640;SDS011;62201;49.966;8.342;2022-12-05T08:50:47;53.13;;;24.87;;
61640;SDS011;62201;49.966;8.342;2022-12-05T08:53:13;55.83;;;24.67;;
61640;SDS011;62201;49.966;8.342;2022-12-05T08:55:38;49.23;;;24.73;;
61640;SDS011;62201;49.966;8.342;2022-12-05T08:58:04;48.47;;;22.57;;
61640;SDS011;62201;49.966;8.342;2022-12-05T09:00:30;54.23;;;24.33;;
61640;SDS011;62201;49.966;8.342;2022-12-05T09:02:55;49.33;;;24.00;;
61640;SDS011;62201;49.966;8.342;2022-12-05T09:05:21;51.63;;;24.87;;
61640;SDS011;62201;49.966;8.342;2022-12-05T09:07:47;54.87;;;25.23;;
61640;SDS011;62201;49.966;8.342;2022-12-05T09:10:13;52.03;;;24.40;;
61640;SDS011;62201;49.966;8.342;2022-12-05T09:12:38;55.23;;;24.67;;
61640;SDS011;62201;49.966;8.342;2022-12-05T09:15:08;52.13;;;24.97;;
61640;SDS011;62201;49.966;8.342;2022-12-05T09:17:35;49.23;;;25.63;;
61640;SDS011;62201;49.966;8.342;2022-12-05T09:20:01;49.73;;;24.27;;
61640;SDS011;62201;49.966;8.342;2022-12-05T09:22:26;51.13;;;25.53;;
61640;SDS011;62201;49.966;8.342;2022-12-05T09:24:51;53.13;;;24.87;;
61640;SDS011;62201;49.966;8.342;2022-12-05T09:27:17;50.97;;;23.87;;
61640;SDS011;62201;49.966;8.342;2022-12-05T09:29:42;51.73;;;24.30;;
61640;SDS011;62201;49.966;8.342;2022-12-05T09:32:08;50.93;;;23.57;;
61640;SDS011;62201;49.966;8.342;2022-12-05T09:34:35;51.63;;;24.67;;
61640;SDS011;62201;49.966;8.342;2022-12-05T09:37:03;51.43;;;24.57;;
61640;SDS011;62201;49.966;8.342;2022-12-05T09:39:29;49.17;;;23.50;;
61640;SDS011;62201;49.966;8.342;2022-12-05T09:56:25;53.40;;;24.63;;
61640;SDS011;62201;49.966;8.342;2022-12-05T09:58:29;52.57;;;25.23;;
61640;SDS011;62201;49.966;8.342;2022-12-05T10:17:52;41.42;;;20.27;;
61640;SDS011;62201;49.966;8.342;2022-12-05T10:20:33;38.90;;;20.73;;
61640;SDS011;62201;49.966;8.342;2022-12-05T10:23:07;42.50;;;22.13;;
61640;SDS011;62201;49.966;8.342;2022-12-05T10:25:59;39.80;;;20.90;;
61640;SDS011;62201;49.966;8.342;2022-12-05T10:28:31;42.90;;;23.27;;
61640;SDS011;62201;49.966;8.342;2022-12-05T10:31:01;40.67;;;22.67;;
61640;SDS011;62201;49.966;8.342;2022-12-05T10:33:32;39.47;;;20.63;;
61640;SDS011;62201;49.966;8.342;2022-12-05T10:36:08;39.28;;;20.58;;
61640;SDS011;62201;49.966;8.342;2022-12-05T10:38:35;39.00;;;19.27;;
61640;SDS011;62201;49.966;8.342;2022-12-05T10:41:05;38.53;;;20.47;;
61640;SDS011;62201;49.966;8.342;2022-12-05T10:43:33;33.73;;;19.73;;
61640;SDS011;62201;49.966;8.342;2022-12-05T10:46:01;39.13;;;19.23;;
61640;SDS011;62201;49.966;8.342;2022-12-05T10:48:27;34.67;;;18.73;;
61640;SDS011;62201;49.966;8.342;2022-12-05T10:50:56;33.53;;;19.07;;
61640;SDS011;62201;49.966;8.342;2022-12-05T10:53:31;34.33;;;18.10;;
61640;SDS011;62201;49.966;8.342;2022-12-05T10:59:00;36.23;;;18.37;;
61640;SDS011;62201;49.966;8.342;2022-12-05T11:01:26;32.57;;;17.80;;
61640;SDS011;62201;49.966;8.342;2022-12-05T11:03:55;32.93;;;17.73;;
61640;SDS011;62201;49.966;8.342;2022-12-05T11:06:23;30.40;;;17.90;;
61640;SDS011;62201;49.966;8.342;2022-12-05T11:08:51;36.27;;;19.23;;
61640;SDS011;62201;49.966;8.342;2022-12-05T11:11:22;35.40;;;18.97;;
61640;SDS011;62201;49.966;8.342;2022-12-05T11:13:54;36.97;;;19.17;;
61640;SDS011;62201;49.966;8.342;2022-12-05T11:16:22;29.80;;;17.10;;
61640;SDS011;62201;49.966;8.342;2022-12-05T11:18:53;32.37;;;16.77;;
61640;SDS011;62201;49.966;8.342;2022-12-05T11:21:18;29.97;;;16.07;;
61640;SDS011;62201;49.966;8.342;2022-12-05T11:23:45;32.43;;;16.67;;
61640;SDS011;62201;49.966;8.342;2022-12-05T11:29:00;29.93;;;16.90;;
61640;SDS011;62201;49.966;8.342;2022-12-05T11:31:27;34.47;;;17.07;;
61640;SDS011;62201;49.966;8.342;2022-12-05T11:36:47;27.27;;;15.83;;
61640;SDS011;62201;49.966;8.342;2022-12-05T11:39:20;27.83;;;16.10;;
61640;SDS011;62201;49.966;8.342;2022-12-05T11:47:21;27.77;;;15.75;;
61640;SDS011;62201;49.966;8.342;2022-12-05T11:55:32;30.20;;;17.20;;
61640;SDS011;62201;49.966;8.342;2022-12-05T11:58:12;31.17;;;16.43;;
61640;SDS011;62201;49.966;8.342;2022-12-05T12:00:59;28.48;;;14.82;;
61640;SDS011;62201;49.966;8.342;2022-12-05T12:09:44;30.30;;;16.30;;
61640;SDS011;62201;49.966;8.342;2022-12-05T12:14:57;33.53;;;16.77;;
61640;SDS011;62201;49.966;8.342;2022-12-05T12:17:59;30.47;;;16.53;;
61640;SDS011;62201;49.966;8.342;2022-12-05T12:20:55;32.87;;;17.00;;
61640;SDS011;62201;49.966;8.342;2022-12-05T12:31:31;36.70;;;18.27;;
61640;SDS011;62201;49.966;8.342;2022-12-05T12:39:50;33.13;;;17.50;;
61640;SDS011;62201;49.966;8.342;2022-12-05T12:48:27;34.43;;;18.03;;
61640;SDS011;62201;49.966;8.342;2022-12-05T12:50:56;38.37;;;18.03;;
61640;SDS011;62201;49.966;8.342;2022-12-05T12:56:41;37.83;;;18.63;;
61640;SDS011;62201;49.966;8.342;2022-12-05T13:02:19;36.43;;;18.87;;
61640;SDS011;62201;49.966;8.342;2022-12-05T13:04:52;38.00;;;18.83;;
61640;SDS011;62201;49.966;8.342;2022-12-05T13:07:28;39.03;;;19.47;;
61640;SDS011;62201;49.966;8.342;2022-12-05T13:10:28;33.83;;;18.10;;
61640;SDS011;62201;49.966;8.342;2022-12-05T13:12:59;34.70;;;16.43;;
61640;SDS011;62201;49.966;8.342;2022-12-05T13:15:32;35.80;;;17.77;;
61640;SDS011;62201;49.966;8.342;2022-12-05T13:18:05;32.17;;;17.53;;
61640;SDS011;62201;49.966;8.342;2022-12-05T13:20:36;33.73;;;17.37;;
61640;SDS011;62201;49.966;8.342;2022-12-05T13:23:03;33.53;;;17.30;;
61640;SDS011;62201;49.966;8.342;2022-12-05T13:25:32;33.10;;;17.30;;
61640;SDS011;62201;49.966;8.342;2022-12-05T13:28:01;36.37;;;17.70;;
61640;SDS011;62201;49.966;8.342;2022-12-05T13:30:29;36.07;;;18.17;;
61640;SDS011;62201;49.966;8.342;2022-12-05T13:32:56;45.43;;;20.23;;
61640;SDS011;62201;49.966;8.342;2022-12-05T13:35:28;48.10;;;21.47;;
61640;SDS011;62201;49.966;8.342;2022-12-05T13:38:33;49.27;;;21.73;;
61640;SDS011;62201;49.966;8.342;2022-12-05T13:41:21;46.53;;;20.93;;
61640;SDS011;62201;49.966;8.342;2022-12-05T13:44:05;48.60;;;20.87;;
61640;SDS011;62201;49.966;8.342;2022-12-05T13:46:37;54.67;;;22.47;;
61640;SDS011;62201;49.966;8.342;2022-12-05T13:49:50;51.10;;;21.77;;
61640;SDS011;62201;49.966;8.342;2022-12-05T13:52:04;53.17;;;21.73;;
61640;SDS011;62201;49.966;8.342;2022-12-05T13:54:32;52.28;;;21.77;;
61640;SDS011;62201;49.966;8.342;2022-12-05T13:57:04;49.88;;;23.13;;
61640;SDS011;62201;49.966;8.342;2022-12-05T14:07:44;62.20;;;24.67;;
61640;SDS011;62201;49.966;8.342;2022-12-05T14:10:21;58.95;;;24.00;;
61640;SDS011;62201;49.966;8.342;2022-12-05T14:15:38;61.00;;;24.57;;
61640;SDS011;62201;49.966;8.342;2022-12-05T14:23:37;58.37;;;24.83;;
61640;SDS011;62201;49.966;8.342;2022-12-05T14:26:11;61.78;;;24.88;;
61640;SDS011;62201;49.966;8.342;2022-12-05T14:34:33;71.83;;;26.13;;
61640;SDS011;62201;49.966;8.342;2022-12-05T14:42:26;72.73;;;27.67;;
61640;SDS011;62201;49.966;8.342;2022-12-05T14:44:59;73.13;;;28.23;;
61640;SDS011;62201;49.966;8.342;2022-12-05T14:47:31;71.67;;;27.20;;
61640;SDS011;62201;49.966;8.342;2022-12-05T14:55:37;89.47;;;27.60;;
61640;SDS011;62201;49.966;8.342;2022-12-05T14:58:03;86.53;;;27.63;;
61640;SDS011;62201;49.966;8.342;2022-12-05T15:00:28;87.77;;;29.53;;
61640;SDS011;62201;49.966;8.342;2022-12-05T15:02:54;89.60;;;30.23;;
61640;SDS011;62201;49.966;8.342;2022-12-05T15:07:57;90.70;;;29.77;;
61640;SDS011;62201;49.966;8.342;2022-12-05T15:10:33;98.93;;;31.57;;
61640;SDS011;62201;49.966;8.342;2022-12-05T15:13:07;113.83;;;34.03;;
61640;SDS011;62201;49.966;8.342;2022-12-05T15:20:56;104.53;;;31.90;;
61640;SDS011;62201;49.966;8.342;2022-12-05T15:26:29;117.30;;;34.03;;
61640;SDS011;62201;49.966;8.342;2022-12-05T15:31:38;92.80;;;29.33;;
61640;SDS011;62201;49.966;8.342;2022-12-05T15:39:22;118.57;;;35.07;;
61640;SDS011;62201;49.966;8.342;2022-12-05T15:41:52;72.23;;;29.07;;
61640;SDS011;62201;49.966;8.342;2022-12-05T15:44:19;86.10;;;29.20;;
61640;SDS011;62201;49.966;8.342;2022-12-05T15:46:52;104.00;;;33.23;;
61640;SDS011;62201;49.966;8.342;2022-12-05T15:49:26;119.97;;;35.07;;
61640;SDS011;62201;49.966;8.342;2022-12-05T15:51:55;80.20;;;28.90;;
61640;SDS011;62201;49.966;8.342;2022-12-05T15:54:31;90.13;;;30.73;;
61640;SDS011;62201;49.966;8.342;2022-12-05T15:57:03;111.57;;;34.40;;
61640;SDS011;62201;49.966;8.342;2022-12-05T15:59:50;82.53;;;29.23;;
61640;SDS011;62201;49.966;8.342;2022-12-05T16:02:21;91.10;;;31.17;;
61640;SDS011;62201;49.966;8.342;2022-12-05T16:04:54;88.43;;;31.63;;
61640;SDS011;62201;49.966;8.342;2022-12-05T16:07:22;73.87;;;28.87;;
61640;SDS011;62201;49.966;8.342;2022-12-05T16:09:53;79.97;;;29.83;;
61640;SDS011;62201;49.966;8.342;2022-12-05T16:12:24;97.03;;;31.07;;
61640;SDS011;62201;49.966;8.342;2022-12-05T16:14:55;66.60;;;26.80;;
61640;SDS011;62201;49.966;8.342;2022-12-05T16:17:25;63.83;;;26.67;;
61640;SDS011;62201;49.966;8.342;2022-12-05T16:19:52;79.57;;;29.83;;
61640;SDS011;62201;49.966;8.342;2022-12-05T16:22:33;63.37;;;25.07;;
61640;SDS011;62201;49.966;8.342;2022-12-05T16:25:00;60.37;;;26.03;;
61640;SDS011;62201;49.966;8.342;2022-12-05T16:27:30;68.37;;;27.80;;
61640;SDS011;62201;49.966;8.342;2022-12-05T16:30:05;86.20;;;30.20;;
61640;SDS011;62201;49.966;8.342;2022-12-05T16:32:41;65.00;;;26.00;;
61640;SDS011;62201;49.966;8.342;2022-12-05T16:38:10;70.93;;;27.23;;
61640;SDS011;62201;49.966;8.342;2022-12-05T16:43:26;61.27;;;26.17;;
61640;SDS011;62201;49.966;8.342;2022-12-05T16:45:56;70.87;;;28.93;;
61640;SDS011;62201;49.966;8.342;2022-12-05T16:48:27;72.50;;;29.47;;
61640;SDS011;62201;49.966;8.342;2022-12-05T16:53:45;59.37;;;27.13;;
61640;SDS011;62201;49.966;8.342;2022-12-05T16:56:18;72.20;;;27.43;;
61640;SDS011;62201;49.966;8.342;2022-12-05T16:58:46;93.07;;;35.03;;
61640;SDS011;62201;49.966;8.342;2022-12-05T17:01:19;128.23;;;70.73;;
61640;SDS011;62201;49.966;8.342;2022-12-05T17:03:46;133.57;;;66.77;;
61640;SDS011;62201;49.966;8.342;2022-12-05T17:06:12;111.60;;;58.70;;
61640;SDS011;62201;49.966;8.342;2022-12-05T17:08:38;104.83;;;51.07;;
61640;SDS011;62201;49.966;8.342;2022-12-05T17:11:04;112.70;;;55.63;;
61640;SDS011;62201;49.966;8.342;2022-12-05T17:13:31;98.33;;;47.30;;
61640;SDS011;62201;49.966;8.342;2022-12-05T17:15:57;75.40;;;35.83;;
61640;SDS011;62201;49.966;8.342;2022-12-05T17:18:22;73.73;;;32.73;;
61640;SDS011;62201;49.966;8.342;2022-12-05T17:20:48;75.63;;;31.07;;
61640;SDS011;62201;49.966;8.342;2022-12-05T17:23:17;64.57;;;27.47;;
61640;SDS011;62201;49.966;8.342;2022-12-05T17:25:47;58.77;;;25.87;;
61640;SDS011;62201;49.966;8.342;2022-12-05T17:28:14;56.47;;;25.67;;
61640;SDS011;62201;49.966;8.342;2022-12-05T17:30:40;53.63;;;26.63;;
61640;SDS011;62201;49.966;8.342;2022-12-05T17:33:07;59.00;;;27.53;;
61640;SDS011;62201;49.966;8.342;2022-12-05T17:35:35;70.97;;;34.27;;
61640;SDS011;62201;49.966;8.342;2022-12-05T17:38:02;58.43;;;29.77;;
61640;SDS011;62201;49.966;8.342;2022-12-05T17:40:28;84.27;;;33.90;;
61640;SDS011;62201;49.966;8.342;2022-12-05T17:42:53;63.07;;;29.50;;